Time;durP1;ratioP1;P1;durP2;ratioP2;P2;SDS_P1;SDS_P2;PMS_P1;PMS_P2;Temp;Humidity;BMP_temperature;BMP_pressure;BME280_temperature;BME280_humidity;BME280_pressure;Samples;Min_cycle;Max_cycle;Signal;HPM_P1;HPM_P2
2022/07/26 00:02:08;;;;;;;7.00;4.83;;;;;;;16.62;74.78;98461.03;4256542;82;21592;-83
2022/07/26 00:08:09;;;;;;;7.50;5.55;;;;;;;16.73;74.97;98453.29;4250499;82;21098;-83
2022/07/26 00:14:11;;;;;;;9.35;6.00;;;;;;;16.56;75.07;98443.41;4255395;82;22069;-83
2022/07/26 00:20:12;;;;;;;8.93;5.70;;;;;;;16.34;75.47;98435.36;4256299;82;21061;-82
2022/07/26 00:26:13;;;;;;;7.10;5.17;;;;;;;16.15;75.65;98436.13;4255421;81;20989;-83
2022/07/26 00:32:14;;;;;;;9.83;4.95;;;;;;;15.98;76.34;98424.84;4381884;79;21471;-82
2022/07/26 00:38:16;;;;;;;7.35;5.40;;;;;;;15.88;77.22;98423.67;4372265;79;21494;-82
2022/07/26 00:44:17;;;;;;;10.25;5.60;;;;;;;15.87;77.48;98418.75;4379215;79;21086;-83
2022/07/26 00:50:19;;;;;;;10.05;6.12;;;;;;;15.80;77.70;98414.76;4382474;79;21040;-83
2022/07/26 00:56:21;;;;;;;7.62;5.58;;;;;;;15.75;77.81;98415.83;4388868;79;21021;-82
2022/07/26 01:02:22;;;;;;;7.87;5.20;;;;;;;15.63;78.25;98418.00;4378866;79;21075;-84
2022/07/26 01:08:24;;;;;;;9.70;5.78;;;;;;;15.44;78.58;98413.84;4382420;79;21484;-82
2022/07/26 01:14:26;;;;;;;9.60;6.08;;;;;;;15.36;79.27;98417.89;4392349;79;21024;-83
2022/07/26 01:20:27;;;;;;;7.55;5.78;;;;;;;15.27;79.43;98406.59;4374220;79;21024;-82
2022/07/26 01:26:28;;;;;;;10.53;6.05;;;;;;;15.18;79.80;98395.33;4380277;79;22243;-82
2022/07/26 01:32:30;;;;;;;7.00;4.75;;;;;;;15.06;79.95;98381.56;4391086;79;21032;-81
2022/07/26 01:38:31;;;;;;;9.95;5.20;;;;;;;15.01;80.60;98380.66;4396528;79;21034;-82
2022/07/26 01:44:32;;;;;;;8.78;5.97;;;;;;;15.05;81.04;98388.88;4395484;79;21029;-82
2022/07/26 01:50:36;;;;;;;10.75;6.17;;;;;;;15.00;80.95;98374.95;4395406;79;21070;-83
2022/07/26 01:56:37;;;;;;;10.18;5.83;;;;;;;14.93;81.38;98364.64;4400204;79;21008;-82
2022/07/26 02:02:38;;;;;;;7.85;5.08;;;;;;;14.89;81.83;98358.42;4389721;79;21042;-82
2022/07/26 02:08:40;;;;;;;8.18;5.72;;;;;;;14.91;82.60;98352.66;4400789;79;21003;-82
2022/07/26 02:14:41;;;;;;;9.23;5.80;;;;;;;14.89;82.65;98346.78;4388951;79;21984;-83
2022/07/26 02:20:42;;;;;;;8.65;6.80;;;;;;;14.87;83.00;98333.25;4284593;81;21601;-83
2022/07/26 02:26:44;;;;;;;8.10;5.87;;;;;;;14.80;82.87;98334.14;4272643;80;21634;-82
2022/07/26 02:32:46;;;;;;;6.72;4.78;;;;;;;14.81;83.41;98339.06;4369659;79;21536;-82
2022/07/26 02:38:47;;;;;;;6.40;5.15;;;;;;;14.91;83.86;98342.25;4366390;79;20996;-82
2022/07/26 02:44:49;;;;;;;11.38;5.70;;;;;;;14.86;83.68;98339.35;4381992;79;21015;-83
2022/07/26 02:50:50;;;;;;;8.08;6.12;;;;;;;14.78;84.00;98337.14;4331045;80;21523;-82
2022/07/26 02:56:51;;;;;;;8.45;6.42;;;;;;;14.73;84.22;98325.22;4384843;79;21020;-82
2022/07/26 03:02:53;;;;;;;6.85;5.55;;;;;;;14.72;84.43;98321.67;4378365;79;21083;-82
2022/07/26 03:16:28;;;;;;;8.63;5.58;;;;;;;14.73;85.44;98310.06;4384600;79;21143;-84
2022/07/26 03:22:30;;;;;;;10.30;5.17;;;;;;;14.74;85.72;98299.21;4378718;79;21043;-82
2022/07/26 03:28:34;;;;;;;6.95;5.72;;;;;;;14.90;86.12;98296.59;4392374;79;21036;-82
2022/07/26 03:34:35;;;;;;;8.45;6.22;;;;;;;14.96;86.13;98291.55;4407209;79;21032;-84
2022/07/26 03:40:36;;;;;;;9.73;5.30;;;;;;;15.00;86.21;98290.88;4397919;79;21508;-82
2022/07/26 03:46:37;;;;;;;8.85;6.15;;;;;;;14.98;86.51;98289.17;4395425;79;21044;-83
2022/07/26 03:52:40;;;;;;;10.13;6.47;;;;;;;15.00;86.75;98284.61;4393026;79;20989;-82
2022/07/26 03:58:42;;;;;;;7.47;5.10;;;;;;;15.00;86.91;98275.72;4390602;79;21494;-82
2022/07/26 04:04:43;;;;;;;8.05;4.80;;;;;;;15.05;87.40;98272.48;4378868;79;22993;-83
2022/07/26 04:10:49;;;;;;;8.33;5.42;;;;;;;15.25;87.53;98273.29;4278759;81;22338;-82
2022/07/26 04:16:50;;;;;;;7.17;5.67;;;;;;;15.33;87.74;98268.44;4278335;81;21117;-81
2022/07/26 04:22:53;;;;;;;8.58;6.08;;;;;;;15.39;87.96;98268.16;4280023;81;21590;-83
2022/07/26 04:28:55;;;;;;;6.22;5.30;;;;;;;15.45;87.88;98267.23;4264803;81;21028;-83
2022/07/26 04:34:56;;;;;;;6.58;5.42;;;;;;;15.59;88.06;98275.23;4286604;81;21055;-83
2022/07/26 04:40:58;;;;;;;8.25;6.45;;;;;;;15.68;88.10;98268.53;4279163;81;22246;-83
2022/07/26 04:46:59;;;;;;;8.08;5.62;;;;;;;15.83;88.47;98273.16;4277795;81;21656;-82
2022/07/26 04:53:01;;;;;;;9.88;5.80;;;;;;;16.06;88.50;98269.49;4275518;81;21916;-84
2022/07/26 04:59:03;;;;;;;8.05;5.58;;;;;;;16.33;88.30;98266.71;4273264;81;21084;-83
2022/07/26 05:05:07;;;;;;;8.45;5.95;;;;;;;16.64;88.26;98267.17;4279167;81;21077;-83
2022/07/26 05:11:09;;;;;;;8.08;5.67;;;;;;;16.83;87.91;98266.30;4278141;81;20999;-83
2022/07/26 05:17:11;;;;;;;8.75;5.25;;;;;;;17.02;87.85;98259.88;4273694;81;21620;-83
2022/07/26 05:23:12;;;;;;;11.63;6.35;;;;;;;17.15;88.06;98264.85;4289658;80;21511;-83
2022/07/26 05:29:13;;;;;;;7.30;5.03;;;;;;;17.29;87.93;98272.02;4267525;81;21062;-83
2022/07/26 05:35:15;;;;;;;13.62;6.55;;;;;;;17.41;87.61;98270.67;4254290;82;23005;-83
2022/07/26 05:41:16;;;;;;;12.98;6.12;;;;;;;17.59;87.79;98266.83;4247577;82;21048;-83
2022/07/26 05:47:17;;;;;;;10.98;6.05;;;;;;;17.87;88.04;98259.70;4246938;82;21012;-84
2022/07/26 05:53:19;;;;;;;8.53;5.65;;;;;;;18.20;87.99;98256.89;4260700;82;21017;-85
2022/07/26 05:59:20;;;;;;;11.08;5.70;;;;;;;18.56;87.72;98271.99;4263149;82;20977;-83
2022/07/26 06:05:21;;;;;;;8.90;5.40;;;;;;;18.81;87.56;98301.67;4256564;82;21503;-82
2022/07/26 06:11:23;;;;;;;6.95;5.47;;;;;;;18.97;87.42;98321.55;4254019;82;21041;-83
2022/07/26 06:17:28;;;;;;;8.83;5.10;;;;;;;19.05;87.22;98336.74;4250142;82;21058;-84
2022/07/26 06:23:27;;;;;;;13.30;6.03;;;;;;;19.13;87.42;98338.84;4251798;82;20976;-83
2022/07/26 06:29:29;;;;;;;9.40;6.03;;;;;;;19.22;87.17;98343.70;4259223;82;21046;-82
2022/07/26 06:35:30;;;;;;;14.73;5.70;;;;;;;19.38;87.00;98344.97;4254544;82;21027;-84
2022/07/26 06:41:32;;;;;;;11.00;5.08;;;;;;;19.72;87.07;98354.06;4257479;82;21033;-83
2022/07/26 06:47:34;;;;;;;15.10;5.72;;;;;;;20.16;86.50;98353.47;4332293;82;21017;-84
2022/07/26 06:53:35;;;;;;;11.33;6.62;;;;;;;20.63;85.85;98367.16;4247995;82;21015;-84
2022/07/26 06:59:37;;;;;;;12.07;6.00;;;;;;;21.10;85.56;98367.66;4239323;82;21025;-85
2022/07/26 07:05:38;;;;;;;15.43;5.65;;;;;;;21.70;84.91;98366.70;4259213;82;20997;-85
2022/07/26 07:11:40;;;;;;;10.32;6.65;;;;;;;22.26;83.61;98375.17;4257621;82;21041;-86
2022/07/26 07:17:41;;;;;;;17.90;7.03;;;;;;;22.65;82.57;98372.77;4257401;82;21014;-82
2022/07/26 07:23:42;;;;;;;8.65;6.65;;;;;;;23.16;81.97;98377.68;4249198;82;21667;-84
2022/07/26 07:29:44;;;;;;;9.30;7.10;;;;;;;23.84;80.80;98384.21;4261583;81;21059;-86
2022/07/26 07:35:54;;;;;;;8.43;6.65;;;;;;;24.44;79.99;98384.01;4281850;81;21704;-85
2022/07/26 07:41:56;;;;;;;17.80;7.67;;;;;;;25.09;76.97;98396.03;4277596;81;21074;-85
2022/07/26 07:47:57;;;;;;;10.60;6.95;;;;;;;25.54;76.45;98417.84;4274093;81;21534;-86
2022/07/26 07:53:59;;;;;;;12.75;7.12;;;;;;;25.79;73.76;98394.73;4276122;81;21007;-85
2022/07/26 08:00:01;;;;;;;11.78;7.33;;;;;;;26.21;72.61;98411.04;4251397;81;21586;-87
2022/07/26 08:06:07;;;;;;;11.70;7.20;;;;;;;26.47;71.37;98444.11;4272935;81;21038;-85
2022/07/26 08:12:09;;;;;;;14.13;7.45;;;;;;;26.30;70.17;98450.93;4273390;81;21016;-85
2022/07/26 08:18:11;;;;;;;16.02;8.58;;;;;;;25.89;69.64;98466.20;4281718;81;21034;-83
2022/07/26 08:24:12;;;;;;;13.95;9.08;;;;;;;25.44;69.45;98483.67;4277387;81;21591;-86
2022/07/26 08:30:13;;;;;;;17.95;10.48;;;;;;;25.07;69.31;98490.33;4269198;81;21058;-85
2022/07/26 08:36:16;;;;;;;23.20;10.43;;;;;;;24.82;69.46;98506.31;4251148;82;20960;-87
2022/07/26 08:42:21;;;;;;;15.13;11.80;;;;;;;24.64;69.67;98523.23;4247896;82;21078;-87
2022/07/26 08:48:22;;;;;;;16.35;11.93;;;;;;;24.43;69.93;98542.55;4251964;82;21078;-86
2022/07/26 08:54:25;;;;;;;14.60;11.73;;;;;;;24.02;70.45;98547.66;4244007;82;21027;-84
2022/07/26 09:00:29;;;;;;;16.62;12.70;;;;;;;23.70;70.74;98557.58;4255382;82;21080;-86
2022/07/26 09:06:31;;;;;;;16.02;12.30;;;;;;;23.66;71.02;98564.59;4259179;82;21071;-85
2022/07/26 09:12:33;;;;;;;13.25;11.80;;;;;;;23.58;71.24;98572.55;4243885;82;21538;-86
2022/07/26 09:18:34;;;;;;;14.35;12.55;;;;;;;23.29;71.48;98582.73;4254788;82;21064;-86
2022/07/26 09:24:46;;;;;;;14.80;12.60;;;;;;;22.94;71.86;98583.70;4255990;82;21542;-86
2022/07/26 09:31:04;;;;;;;17.15;12.03;;;;;;;22.77;72.57;98602.77;4266942;81;21068;-86
2022/07/26 09:37:06;;;;;;;14.15;12.70;;;;;;;22.61;72.99;98606.50;4277384;81;21663;-86
2022/07/26 09:43:07;;;;;;;15.08;13.28;;;;;;;22.48;73.45;98622.56;4277033;81;21093;-86
2022/07/26 09:49:21;;;;;;;14.68;12.85;;;;;;;22.29;74.05;98630.74;4270399;81;21056;-87
2022/07/26 09:55:22;;;;;;;16.50;11.75;;;;;;;22.08;74.69;98629.61;4279680;81;21441;-85
2022/07/26 10:01:23;;;;;;;17.60;14.50;;;;;;;21.96;75.17;98635.30;4279108;80;21021;-86
2022/07/26 10:07:26;;;;;;;15.75;14.15;;;;;;;21.89;75.73;98639.17;4278412;81;21039;-86
2022/07/26 10:13:29;;;;;;;16.35;13.48;;;;;;;21.86;76.09;98642.88;4286235;81;20975;-85
2022/07/26 10:19:38;;;;;;;17.48;15.35;;;;;;;21.84;76.63;98654.30;4225425;81;21115;-87
2022/07/26 10:25:49;;;;;;;17.87;15.78;;;;;;;21.82;77.28;98652.58;4250242;82;21040;-87
2022/07/26 10:32:06;;;;;;;17.27;15.45;;;;;;;21.81;77.42;98651.04;4244509;82;21139;-86
2022/07/26 10:38:14;;;;;;;18.67;13.18;;;;;;;21.79;77.63;98664.64;4254611;82;20985;-87
2022/07/26 10:44:23;;;;;;;16.17;13.03;;;;;;;21.73;77.93;98668.63;4248093;82;21025;-86
2022/07/26 10:50:32;;;;;;;16.15;12.40;;;;;;;21.60;78.01;98675.68;4207758;82;22020;-86
2022/07/26 10:56:34;;;;;;;16.10;13.32;;;;;;;21.49;78.55;98678.70;4187192;83;21055;-86
2022/07/26 11:02:36;;;;;;;16.62;12.60;;;;;;;21.35;79.04;98677.83;4192193;83;21058;-86
2022/07/26 11:08:37;;;;;;;15.55;13.80;;;;;;;21.28;79.77;98676.08;4189070;83;20964;-85
2022/07/26 11:14:39;;;;;;;20.37;17.60;;;;;;;21.26;80.07;98679.17;4235967;82;21040;-86
2022/07/26 11:20:43;;;;;;;20.12;17.07;;;;;;;21.21;80.55;98684.71;4242460;82;21049;-86
2022/07/26 11:26:45;;;;;;;21.62;17.67;;;;;;;21.20;80.87;98684.56;4242004;82;21091;-87
2022/07/26 11:32:57;;;;;;;20.10;18.00;;;;;;;21.19;81.16;98696.91;4249678;82;21147;-86
2022/07/26 11:38:58;;;;;;;22.27;19.87;;;;;;;21.10;81.84;98696.84;4206175;83;21602;-86
2022/07/26 11:45:00;;;;;;;23.12;20.35;;;;;;;21.04;82.33;98696.47;4245839;82;21037;-86
2022/07/26 11:51:18;;;;;;;22.87;20.02;;;;;;;21.02;83.13;98693.36;4229024;82;21081;-86
2022/07/26 11:57:20;;;;;;;22.95;20.27;;;;;;;21.06;83.42;98694.81;4251540;82;21961;-85
2022/07/26 12:03:25;;;;;;;21.90;19.70;;;;;;;21.09;83.69;98692.52;4247333;81;20993;-85
2022/07/26 12:09:51;;;;;;;20.32;18.30;;;;;;;21.11;83.95;98690.03;4240427;82;22132;-86
2022/07/26 12:15:53;;;;;;;22.80;19.95;;;;;;;21.06;84.40;98676.72;4248670;82;21040;-85
2022/07/26 12:22:17;;;;;;;19.52;17.40;;;;;;;21.06;84.91;98682.89;4235591;82;21992;-85
2022/07/26 12:28:44;;;;;;;18.05;15.93;;;;;;;21.05;85.35;98677.94;4229771;82;21058;-85
2022/07/26 12:35:07;;;;;;;21.93;17.12;;;;;;;21.00;85.93;98674.97;4244997;82;21877;-84
2022/07/26 12:41:09;;;;;;;17.77;15.68;;;;;;;20.85;86.56;98671.09;4234993;83;21030;-85
2022/07/26 12:47:11;;;;;;;19.23;14.63;;;;;;;20.71;87.60;98673.77;4233610;82;21980;-85
2022/07/26 12:53:15;;;;;;;19.15;15.63;;;;;;;20.62;88.13;98669.52;4231649;83;21033;-85
2022/07/26 12:59:16;;;;;;;18.57;14.60;;;;;;;20.60;88.82;98672.56;4233813;83;20989;-85
2022/07/26 13:05:17;;;;;;;19.80;16.02;;;;;;;20.65;89.42;98669.21;4226025;83;21945;-85
2022/07/26 13:11:18;;;;;;;20.88;18.70;;;;;;;20.60;89.69;98680.90;4223479;83;21464;-86
2022/07/26 13:17:20;;;;;;;20.60;17.25;;;;;;;20.45;90.22;98688.17;4150979;84;21067;-85
2022/07/26 13:23:21;;;;;;;26.57;20.10;;;;;;;20.28;90.51;98701.42;4097437;85;21035;-84
2022/07/26 13:29:23;;;;;;;16.27;9.38;;;;;;;20.09;91.16;98712.15;4122444;85;21979;-81
2022/07/26 13:35:24;;;;;;;10.43;7.10;;;;;;;19.90;91.66;98722.27;4116222;85;21172;-84
2022/07/26 13:41:25;;;;;;;12.65;6.97;;;;;;;19.66;92.25;98732.70;4088824;85;21060;-83
2022/07/26 13:47:27;;;;;;;8.43;6.22;;;;;;;19.46;93.03;98747.38;4207618;83;21031;-83
2022/07/26 13:53:29;;;;;;;6.58;5.60;;;;;;;19.31;93.42;98770.58;4218137;83;22388;-84
2022/07/26 13:59:30;;;;;;;5.40;4.85;;;;;;;19.14;93.25;98772.44;4209891;83;22184;-83
2022/07/26 14:05:31;;;;;;;6.47;5.85;;;;;;;19.13;93.96;98773.64;4205154;82;21502;-83
2022/07/26 14:11:33;;;;;;;9.93;6.58;;;;;;;19.13;94.17;98776.41;4217578;83;21006;-83
2022/07/26 14:17:35;;;;;;;6.90;6.20;;;;;;;19.24;94.67;98778.30;4218937;83;21017;-83
2022/07/26 14:23:38;;;;;;;8.08;7.22;;;;;;;19.34;94.86;98786.35;4218417;81;21022;-83
2022/07/26 14:29:39;;;;;;;8.60;7.35;;;;;;;19.31;95.04;98776.13;4214358;83;21054;-83
2022/07/26 14:35:42;;;;;;;9.63;8.10;;;;;;;19.32;95.31;98773.55;4212514;81;21031;-85
2022/07/26 14:41:43;;;;;;;8.93;8.03;;;;;;;19.33;95.53;98782.63;4204088;82;21062;-83
2022/07/26 14:47:45;;;;;;;11.40;9.08;;;;;;;19.33;95.69;98768.16;4203918;83;21138;-83
2022/07/26 14:53:46;;;;;;;9.60;8.18;;;;;;;19.26;95.40;98758.62;4200467;83;21432;-84
2022/07/26 14:59:48;;;;;;;11.93;8.53;;;;;;;19.34;96.07;98769.70;4208473;83;21559;-84
2022/07/26 15:05:49;;;;;;;9.28;7.85;;;;;;;19.34;96.35;98778.66;4205965;83;22071;-83
2022/07/26 15:11:50;;;;;;;11.40;9.43;;;;;;;19.29;96.20;98777.80;4209258;83;21083;-84
2022/07/26 15:17:52;;;;;;;11.85;10.60;;;;;;;19.26;96.41;98784.20;4210840;83;21074;-84
2022/07/26 15:23:53;;;;;;;11.88;8.85;;;;;;;19.26;96.12;98782.80;4210957;83;21506;-83
2022/07/26 15:29:56;;;;;;;11.90;9.25;;;;;;;19.19;96.76;98787.14;4211013;83;20988;-83
2022/07/26 15:35:57;;;;;;;14.50;8.65;;;;;;;19.15;96.89;98787.27;4208917;83;21802;-85
2022/07/26 15:41:59;;;;;;;9.98;8.83;;;;;;;19.18;96.62;98784.20;4210002;83;21130;-84
2022/07/26 15:48:03;;;;;;;11.43;9.28;;;;;;;19.13;96.90;98782.75;4208742;83;21579;-84
2022/07/26 15:54:05;;;;;;;11.68;10.15;;;;;;;19.07;97.29;98787.27;4205306;83;21055;-84
2022/07/26 16:00:12;;;;;;;13.22;11.03;;;;;;;19.08;97.28;98795.76;4217436;83;21059;-83
2022/07/26 16:06:14;;;;;;;13.48;10.93;;;;;;;18.99;97.37;98804.52;4218746;83;21574;-83
2022/07/26 16:12:16;;;;;;;13.90;11.22;;;;;;;19.00;97.83;98803.30;4212636;83;21042;-84
2022/07/26 16:18:17;;;;;;;17.82;13.10;;;;;;;19.00;98.27;98799.14;4212698;83;21077;-83
2022/07/26 16:24:18;;;;;;;17.10;11.57;;;;;;;19.04;98.21;98804.00;4224947;83;21335;-83
2022/07/26 16:30:20;;;;;;;19.40;13.72;;;;;;;19.01;98.48;98800.72;4072397;86;21104;-83
2022/07/26 16:36:21;;;;;;;13.95;12.43;;;;;;;18.98;98.29;98794.02;4106296;85;21035;-82
2022/07/26 16:42:23;;;;;;;15.20;13.32;;;;;;;18.98;98.66;98805.75;4225249;81;21495;-83
2022/07/26 16:48:24;;;;;;;18.40;11.25;;;;;;;18.90;98.08;98792.67;4225081;83;20970;-83
2022/07/26 16:54:25;;;;;;;12.68;11.30;;;;;;;18.81;98.04;98787.56;4220388;83;21545;-83
2022/07/26 17:00:27;;;;;;;13.80;11.55;;;;;;;18.74;98.40;98788.52;4231387;83;21508;-83
2022/07/26 17:06:28;;;;;;;13.18;10.23;;;;;;;18.67;98.59;98786.70;4230188;83;21010;-83
2022/07/26 17:12:29;;;;;;;14.47;10.60;;;;;;;18.67;98.75;98788.08;4220259;83;21522;-85
2022/07/26 17:18:31;;;;;;;14.90;11.50;;;;;;;18.63;98.95;98792.95;4226953;83;21019;-84
2022/07/26 17:24:33;;;;;;;12.70;10.80;;;;;;;18.61;99.17;98792.59;4205703;82;21328;-84
2022/07/26 17:30:34;;;;;;;13.25;10.25;;;;;;;18.59;99.36;98800.55;4210053;83;21015;-83
2022/07/26 17:36:36;;;;;;;13.25;10.15;;;;;;;18.58;99.14;98799.00;4209463;83;21070;-84
2022/07/26 17:42:37;;;;;;;12.10;10.32;;;;;;;18.49;98.98;98791.91;4205498;83;21049;-84
2022/07/26 17:48:38;;;;;;;12.55;9.60;;;;;;;18.41;99.51;98790.50;4217612;81;21116;-84
2022/07/26 17:54:40;;;;;;;11.48;9.85;;;;;;;18.41;99.45;98798.03;4244263;83;21078;-85
2022/07/26 18:00:41;;;;;;;14.10;9.83;;;;;;;18.39;99.68;98812.31;4213070;83;21038;-84
2022/07/26 18:06:43;;;;;;;13.35;11.78;;;;;;;18.36;99.85;98815.13;4214122;83;21031;-84
2022/07/26 18:12:44;;;;;;;16.27;10.93;;;;;;;18.42;100.00;98813.44;4216138;83;21431;-84
2022/07/26 18:18:46;;;;;;;18.95;12.03;;;;;;;18.35;99.61;98799.73;4210967;83;20969;-85
2022/07/26 18:24:47;;;;;;;14.38;10.23;;;;;;;18.30;100.00;98812.11;4173104;81;22004;-84
2022/07/26 18:30:49;;;;;;;13.85;10.53;;;;;;;18.20;99.89;98810.94;4172805;83;20997;-84
2022/07/26 18:36:51;;;;;;;15.28;11.05;;;;;;;18.15;99.93;98809.46;4175933;83;20983;-85
2022/07/26 18:42:52;;;;;;;17.95;11.43;;;;;;;18.16;100.00;98822.72;4176169;83;21014;-84
2022/07/26 18:48:53;;;;;;;14.53;11.73;;;;;;;18.09;100.00;98820.09;4153403;83;21054;-84
2022/07/26 18:54:55;;;;;;;13.80;10.78;;;;;;;17.99;100.00;98826.66;4173598;83;20977;-85
2022/07/26 19:00:56;;;;;;;15.63;11.90;;;;;;;17.87;100.00;98824.55;4103146;85;21823;-84
2022/07/26 19:06:57;;;;;;;15.80;12.10;;;;;;;17.80;100.00;98817.16;4105690;84;21042;-84
2022/07/26 19:12:59;;;;;;;14.40;12.80;;;;;;;17.76;100.00;98817.06;4100084;85;21027;-83
2022/07/26 19:19:00;;;;;;;14.98;12.75;;;;;;;17.69;100.00;98801.37;4103679;84;21005;-84
2022/07/26 19:25:03;;;;;;;13.55;11.43;;;;;;;17.63;100.00;98800.31;4062300;85;21568;-84
2022/07/26 19:31:04;;;;;;;13.43;11.15;;;;;;;17.55;100.00;98800.27;4038469;86;21010;-84
2022/07/26 19:37:06;;;;;;;13.85;9.98;;;;;;;17.64;100.00;98799.69;4143358;84;21075;-85
2022/07/26 19:43:07;;;;;;;14.00;10.85;;;;;;;17.68;100.00;98802.56;4208189;84;21643;-84
2022/07/26 19:49:10;;;;;;;11.22;9.80;;;;;;;17.70;100.00;98804.89;4146530;84;21042;-84
2022/07/26 19:55:12;;;;;;;13.40;10.43;;;;;;;17.68;100.00;98811.48;4147497;84;21024;-84
2022/07/26 20:01:13;;;;;;;13.80;10.30;;;;;;;17.70;100.00;98805.69;4143460;84;21013;-84
2022/07/26 20:07:18;;;;;;;12.33;10.20;;;;;;;17.71;100.00;98809.25;4146014;84;21066;-83
2022/07/26 20:13:19;;;;;;;15.15;11.70;;;;;;;17.67;100.00;98805.75;4142249;84;22015;-84
2022/07/26 20:19:23;;;;;;;14.90;10.78;;;;;;;17.52;100.00;98812.79;4150244;84;21530;-84
2022/07/26 20:25:24;;;;;;;12.43;10.05;;;;;;;17.44;100.00;98812.15;4174859;83;21573;-84
2022/07/26 20:31:26;;;;;;;15.32;10.40;;;;;;;17.30;100.00;98817.13;4181712;83;21028;-84
2022/07/26 20:37:27;;;;;;;16.73;10.80;;;;;;;17.20;100.00;98818.89;4187806;83;21040;-84
2022/07/26 20:43:28;;;;;;;13.70;10.00;;;;;;;17.04;100.00;98817.39;4186812;83;21607;-84
2022/07/26 20:49:29;;;;;;;15.80;11.03;;;;;;;16.97;100.00;98821.09;4178658;83;22025;-85
2022/07/26 20:55:31;;;;;;;15.80;10.08;;;;;;;16.91;100.00;98826.13;4181613;83;21087;-83
2022/07/26 21:01:33;;;;;;;12.95;8.88;;;;;;;16.85;100.00;98826.44;4182426;83;21052;-84
2022/07/26 21:07:35;;;;;;;11.50;8.75;;;;;;;16.71;100.00;98829.44;4178116;83;21575;-83
2022/07/26 21:13:36;;;;;;;12.43;9.75;;;;;;;16.66;100.00;98836.81;4182524;83;21076;-84
2022/07/26 21:19:38;;;;;;;11.12;9.60;;;;;;;16.59;100.00;98836.31;4179007;83;21107;-85
2022/07/26 21:25:40;;;;;;;10.90;7.42;;;;;;;16.47;100.00;98836.11;4210090;82;21483;-84
2022/07/26 21:31:41;;;;;;;10.28;9.15;;;;;;;16.39;100.00;98841.53;4211445;83;21050;-83
2022/07/26 21:37:42;;;;;;;10.55;8.88;;;;;;;16.32;100.00;98848.55;4209068;83;21046;-83
2022/07/26 21:43:43;;;;;;;9.33;7.45;;;;;;;16.28;100.00;98849.18;4215323;82;21054;-83
2022/07/26 21:49:45;;;;;;;12.43;9.25;;;;;;;16.21;100.00;98857.58;4208971;83;21082;-84
2022/07/26 21:55:46;;;;;;;13.38;8.00;;;;;;;16.25;100.00;98858.30;4214374;83;21050;-82
2022/07/26 22:01:47;;;;;;;9.18;7.45;;;;;;;16.16;100.00;98864.32;4207889;83;21067;-83
2022/07/26 22:07:48;;;;;;;8.73;5.80;;;;;;;16.01;100.00;98868.47;4212380;83;21075;-83
2022/07/26 22:13:50;;;;;;;11.78;8.10;;;;;;;15.90;100.00;98863.68;4210885;83;22253;-83
2022/07/26 22:19:51;;;;;;;14.05;8.43;;;;;;;15.72;100.00;98862.33;4206900;83;21066;-83
2022/07/26 22:25:52;;;;;;;10.05;7.65;;;;;;;15.52;100.00;98854.66;4222626;83;21697;-83
2022/07/26 22:31:53;;;;;;;12.63;7.72;;;;;;;15.56;100.00;98849.11;4225272;83;21113;-83
2022/07/26 22:37:55;;;;;;;11.33;7.87;;;;;;;15.57;100.00;98852.05;4227359;83;21057;-83
2022/07/26 22:43:57;;;;;;;10.90;8.65;;;;;;;15.53;100.00;98856.83;4286066;83;20999;-82
2022/07/26 22:49:58;;;;;;;9.55;6.85;;;;;;;15.55;100.00;98860.73;4235005;83;21479;-83
2022/07/26 22:56:00;;;;;;;11.08;8.18;;;;;;;15.60;100.00;98860.29;4226349;83;20983;-82
2022/07/26 23:02:01;;;;;;;10.03;7.03;;;;;;;15.64;100.00;98857.50;4222711;83;21533;-83
2022/07/26 23:08:03;;;;;;;10.50;6.62;;;;;;;15.51;100.00;98858.63;4219744;83;21070;-83
2022/07/26 23:14:04;;;;;;;9.48;6.78;;;;;;;15.56;100.00;98870.59;4220651;83;21081;-83
2022/07/26 23:20:08;;;;;;;7.37;5.75;;;;;;;15.62;100.00;98868.16;4229959;81;21027;-84
2022/07/26 23:26:12;;;;;;;8.88;5.78;;;;;;;15.60;100.00;98861.67;4214179;83;21067;-84
2022/07/26 23:32:20;;;;;;;6.95;5.45;;;;;;;15.57;100.00;98866.63;4215559;83;21065;-84
2022/07/26 23:38:21;;;;;;;12.47;5.78;;;;;;;15.53;100.00;98860.35;4212222;83;21032;-83
2022/07/26 23:44:23;;;;;;;8.40;6.05;;;;;;;15.49;100.00;98865.73;4208874;83;20999;-84
2022/07/26 23:50:24;;;;;;;7.00;5.90;;;;;;;15.43;100.00;98876.44;4220826;83;21899;-84
2022/07/26 23:56:25;;;;;;;8.73;5.37;;;;;;;15.19;100.00;98865.63;4207073;83;21063;-83
